Terminal Aerodrome Forecast
Issued by NWS Nashville, TN

Home | Current Version | Previous Version | Text Only | Print | Product List | Glossary On
Versions: 1 2 3 4 5 6 7 8 9 10 11 12 13 14 15 16 17 18 19 20
000
FTUS44 KOHX 251131
TAFBNA
TAF
KBNA 251131Z 2512/2612 17015G27KT P6SM SCT050 BKN250
     FM251800 18015G27KT P6SM -SHRA VCTS OVC050CB
      TEMPO 2520/2523 2SM -TSRA BR OVC030CB
     FM260200 17011G18KT 5SM -SHRA OVC035
     FM260800 19006KT 6SM -SHRA BR BKN020 OVC030=

USA.gov is the U.S. government's official web portal to all federal, state and local government web resources and services.